createdAt,value
2022-08-27T00:01:16.366Z,88.80
2022-08-27T00:03:44.469Z,89.00
2022-08-27T00:06:15.291Z,88.80
2022-08-27T00:08:44.306Z,88.90
2022-08-27T00:11:30.437Z,89.20
2022-08-27T00:13:57.206Z,89.20
2022-08-27T00:16:24.436Z,89.00
2022-08-27T00:18:51.215Z,89.20
2022-08-27T00:21:17.986Z,89.10
2022-08-27T00:23:44.823Z,89.30
2022-08-27T00:26:12.491Z,89.10
2022-08-27T00:28:57.887Z,89.10
2022-08-27T00:31:27.549Z,89.10
2022-08-27T00:33:54.868Z,89.20
2022-08-27T00:36:21.551Z,89.30
2022-08-27T00:44:36.426Z,89.10
2022-08-27T00:47:05.495Z,89.20
2022-08-27T00:49:36.819Z,89.20
2022-08-27T00:52:08.903Z,88.90
2022-08-27T00:54:35.598Z,88.70
2022-08-27T00:57:03.443Z,89.00
2022-08-27T00:59:48.591Z,88.80
2022-08-27T01:05:20.600Z,88.70
2022-08-27T01:07:49.953Z,88.70
2022-08-27T01:10:18.431Z,88.70
2022-08-27T01:13:03.561Z,88.70
2022-08-27T01:15:30.608Z,88.60
2022-08-27T01:17:58.086Z,88.70
2022-08-27T01:20:27.621Z,88.70
2022-08-27T01:23:10.000Z,88.70
2022-08-27T01:25:37.720Z,88.70
2022-08-27T01:28:04.957Z,88.70
2022-08-27T01:30:31.700Z,88.60
2022-08-27T01:32:59.135Z,88.80
2022-08-27T01:35:26.236Z,88.70
2022-08-27T01:37:54.259Z,88.70
2022-08-27T01:40:25.451Z,88.70
2022-08-27T01:42:53.302Z,88.80
2022-08-27T01:45:20.014Z,88.90
2022-08-27T01:48:08.443Z,88.90
2022-08-27T01:50:37.354Z,89.00
2022-08-27T01:56:32.716Z,89.10
2022-08-27T01:58:59.393Z,89.10
2022-08-27T02:01:26.117Z,89.00
2022-08-27T02:03:52.893Z,89.00
2022-08-27T02:06:19.808Z,88.90
2022-08-27T02:08:46.531Z,88.90
2022-08-27T02:11:14.776Z,88.80
2022-08-27T02:13:41.505Z,88.90
2022-08-27T02:16:09.029Z,88.90
2022-08-27T02:18:38.388Z,88.70
2022-08-27T02:21:08.763Z,88.80
2022-08-27T02:23:35.489Z,88.70
2022-08-27T02:26:02.188Z,88.90
2022-08-27T02:28:28.896Z,88.80
2022-08-27T02:30:55.627Z,89.00
2022-08-27T02:33:22.379Z,89.10
2022-08-27T02:35:49.958Z,89.20
2022-08-27T02:38:16.992Z,89.20
2022-08-27T02:40:44.530Z,89.40
2022-08-27T02:43:14.167Z,89.30
2022-08-27T02:45:42.776Z,89.40
2022-08-27T02:48:09.928Z,89.30
2022-08-27T02:50:36.818Z,89.30
2022-08-27T02:53:04.866Z,89.60
2022-08-27T02:55:32.283Z,89.80
2022-08-27T02:57:59.008Z,89.70
2022-08-27T03:00:26.016Z,89.80
2022-08-27T03:02:53.611Z,89.70
2022-08-27T03:05:20.546Z,89.70
2022-08-27T03:07:47.489Z,90.00
2022-08-27T03:10:27.506Z,89.80
2022-08-27T03:12:54.164Z,90.20
2022-08-27T03:15:21.013Z,89.80
2022-08-27T03:18:07.157Z,89.80
2022-08-27T03:20:35.564Z,89.90
2022-08-27T03:23:02.241Z,89.90
2022-08-27T03:25:30.324Z,90.00
2022-08-27T03:27:59.925Z,90.00
2022-08-27T03:30:26.719Z,90.00
2022-08-27T03:32:53.532Z,90.00
2022-08-27T03:35:21.882Z,90.10
2022-08-27T03:41:11.945Z,90.10
2022-08-27T03:43:38.629Z,90.00
2022-08-27T03:46:06.774Z,90.00
2022-08-27T03:48:34.965Z,90.00
2022-08-27T03:51:06.611Z,90.00
2022-08-27T03:53:33.823Z,90.00
2022-08-27T03:56:01.288Z,89.90
2022-08-27T03:58:28.027Z,90.00
2022-08-27T04:00:54.726Z,89.80
2022-08-27T04:03:25.253Z,89.80
2022-08-27T04:05:53.213Z,89.80
2022-08-27T04:08:19.953Z,89.70
2022-08-27T04:10:49.024Z,89.70
2022-08-27T04:19:55.102Z,89.40
2022-08-27T04:22:21.826Z,89.70
2022-08-27T04:24:48.516Z,89.60
2022-08-27T04:27:16.270Z,89.80
2022-08-27T04:29:42.981Z,89.90
2022-08-27T04:32:10.231Z,90.00
2022-08-27T04:34:37.088Z,90.10
2022-08-27T04:37:03.916Z,90.00
2022-08-27T04:39:30.926Z,90.00
2022-08-27T04:42:00.083Z,90.00
2022-08-27T04:44:28.744Z,90.00
2022-08-27T04:46:59.739Z,90.00
2022-08-27T04:49:27.352Z,90.00
2022-08-27T04:51:54.526Z,90.10
2022-08-27T04:54:26.006Z,90.10
2022-08-27T04:57:00.966Z,90.40
2022-08-27T04:59:27.645Z,90.10
2022-08-27T05:01:54.493Z,90.10
2022-08-27T05:04:21.361Z,90.10
2022-08-27T05:06:49.302Z,90.00
2022-08-27T05:09:16.741Z,90.10
2022-08-27T05:11:45.393Z,90.10
2022-08-27T05:14:15.128Z,90.00
2022-08-27T05:16:42.661Z,90.10
2022-08-27T05:19:11.683Z,90.00
2022-08-27T05:21:39.538Z,90.00
2022-08-27T05:24:07.291Z,90.00
2022-08-27T05:26:34.891Z,90.00
2022-08-27T05:29:01.921Z,90.00
2022-08-27T05:31:29.329Z,90.20
2022-08-27T05:33:57.988Z,90.10
2022-08-27T05:36:26.916Z,90.10
2022-08-27T05:38:55.156Z,90.10
2022-08-27T05:41:30.246Z,90.10
2022-08-27T05:44:37.200Z,90.00
2022-08-27T05:46:56.953Z,90.10
2022-08-27T05:49:23.635Z,90.20
2022-08-27T05:51:50.481Z,90.10
2022-08-27T05:54:20.305Z,90.10
2022-08-27T05:56:47.961Z,90.10
2022-08-27T05:59:34.581Z,90.20
2022-08-27T06:02:02.119Z,90.40
2022-08-27T06:04:28.800Z,90.10
2022-08-27T06:06:56.337Z,90.00
2022-08-27T06:09:25.013Z,89.90
2022-08-27T06:11:54.148Z,90.00
2022-08-27T06:14:21.242Z,90.00
2022-08-27T06:16:48.606Z,89.90
2022-08-27T06:19:15.686Z,90.00
2022-08-27T06:21:43.208Z,89.80
2022-08-27T06:24:12.147Z,89.90
2022-08-27T06:26:39.164Z,89.70
2022-08-27T06:29:07.164Z,89.80
2022-08-27T06:31:35.658Z,89.70
2022-08-27T06:34:07.497Z,89.70
2022-08-27T06:36:40.451Z,89.70
2022-08-27T06:39:08.048Z,89.60
2022-08-27T06:41:35.071Z,89.70
2022-08-27T06:44:02.639Z,89.70
2022-08-27T06:46:29.664Z,89.80
2022-08-27T06:48:57.916Z,89.80
2022-08-27T06:51:26.423Z,89.90
2022-08-27T06:53:57.540Z,89.90
2022-08-27T06:56:24.452Z,90.00
2022-08-27T06:58:59.189Z,90.00
2022-08-27T07:01:30.509Z,90.10
2022-08-27T07:03:58.546Z,90.00
2022-08-27T07:06:25.957Z,90.10
2022-08-27T07:08:53.513Z,90.20
2022-08-27T07:11:21.113Z,90.10
2022-08-27T07:13:48.220Z,90.00
2022-08-27T07:16:17.416Z,90.00
2022-08-27T07:18:44.805Z,90.10
2022-08-27T07:21:12.458Z,90.00
2022-08-27T07:23:39.843Z,90.00
2022-08-27T07:26:10.393Z,90.00
2022-08-27T07:28:38.122Z,89.70
2022-08-27T07:31:05.661Z,90.00
2022-08-27T07:33:32.508Z,90.00
2022-08-27T07:35:59.231Z,90.00
2022-08-27T07:38:25.940Z,90.00
2022-08-27T07:40:53.563Z,90.00
2022-08-27T07:43:38.752Z,90.00
2022-08-27T07:46:05.667Z,89.40
2022-08-27T07:48:36.484Z,89.70
2022-08-27T07:51:05.394Z,89.40
2022-08-27T07:53:33.131Z,89.40
2022-08-27T07:56:06.796Z,89.10
2022-08-27T07:58:33.722Z,89.00
2022-08-27T08:01:00.462Z,89.00
2022-08-27T08:03:28.044Z,88.70
2022-08-27T08:05:56.601Z,88.60
2022-08-27T08:08:23.814Z,88.80
2022-08-27T08:10:50.559Z,88.70
2022-08-27T08:13:18.629Z,89.50
2022-08-27T08:15:46.362Z,90.30
2022-08-27T08:18:13.375Z,90.50
2022-08-27T08:20:57.649Z,90.70
2022-08-27T08:23:25.535Z,90.70
2022-08-27T08:25:55.276Z,90.60
2022-08-27T08:28:21.959Z,90.40
2022-08-27T08:30:49.975Z,90.40
2022-08-27T08:33:17.231Z,90.40
2022-08-27T08:35:44.051Z,90.30
2022-08-27T08:38:10.957Z,90.20
2022-08-27T08:40:43.336Z,90.10
2022-08-27T08:43:28.505Z,90.10
2022-08-27T08:45:56.816Z,90.20
2022-08-27T08:48:25.306Z,90.00
2022-08-27T08:51:18.732Z,90.00
2022-08-27T08:53:52.853Z,90.00
2022-08-27T08:56:31.813Z,90.20
2022-08-27T08:59:04.709Z,90.00
2022-08-27T09:01:33.044Z,89.30
2022-08-27T09:04:01.022Z,90.00
2022-08-27T09:06:33.673Z,89.70
2022-08-27T09:09:04.626Z,89.70
2022-08-27T09:11:44.034Z,89.40
2022-08-27T09:14:16.786Z,89.40
2022-08-27T09:16:43.503Z,88.40
2022-08-27T09:19:13.018Z,89.40
2022-08-27T09:21:49.455Z,88.60
2022-08-27T09:24:16.206Z,89.10
2022-08-27T09:26:43.950Z,89.20
2022-08-27T09:29:21.308Z,90.00
2022-08-27T09:31:56.737Z,89.80
2022-08-27T09:34:25.387Z,88.50
2022-08-27T09:36:54.266Z,88.70
2022-08-27T09:39:26.976Z,89.10
2022-08-27T09:41:53.704Z,88.00
2022-08-27T09:44:20.763Z,87.50
2022-08-27T09:46:53.625Z,87.70
2022-08-27T09:49:20.338Z,87.80
2022-08-27T09:51:47.719Z,88.40
2022-08-27T09:54:26.638Z,87.80
2022-08-27T09:56:53.468Z,88.40
2022-08-27T09:59:22.256Z,87.60
2022-08-27T10:01:53.006Z,88.20
2022-08-27T10:04:28.447Z,87.40
2022-08-27T10:06:55.906Z,87.20
2022-08-27T10:09:28.751Z,87.80
2022-08-27T10:11:55.438Z,86.90
2022-08-27T10:14:32.608Z,88.00
2022-08-27T10:17:22.443Z,87.40
2022-08-27T10:20:02.755Z,87.10
2022-08-27T10:22:41.330Z,87.40
2022-08-27T10:25:09.003Z,86.90
2022-08-27T10:27:55.911Z,86.60
2022-08-27T10:30:34.438Z,87.10
2022-08-27T10:33:07.793Z,86.80
2022-08-27T10:36:00.374Z,87.30
2022-08-27T10:38:44.679Z,87.00
2022-08-27T10:41:37.911Z,87.20
2022-08-27T10:44:10.401Z,86.80
2022-08-27T10:46:50.094Z,86.60
2022-08-27T10:49:21.385Z,86.40
2022-08-27T10:52:01.242Z,87.10
2022-08-27T10:54:32.436Z,86.80
2022-08-27T10:57:28.642Z,86.20
2022-08-27T10:59:57.309Z,86.80
2022-08-27T11:02:36.186Z,85.80
2022-08-27T11:05:15.069Z,85.50
2022-08-27T11:07:47.781Z,85.50
2022-08-27T11:10:14.485Z,85.70
2022-08-27T11:12:43.119Z,85.70
2022-08-27T11:15:17.730Z,85.60
2022-08-27T11:17:51.502Z,86.00
2022-08-27T11:20:24.960Z,87.50
2022-08-27T11:22:54.913Z,87.60
2022-08-27T11:25:21.846Z,85.30
2022-08-27T11:27:54.656Z,86.40
2022-08-27T11:30:41.300Z,87.80
2022-08-27T11:33:14.444Z,87.10
2022-08-27T11:35:41.421Z,87.60
2022-08-27T11:38:17.468Z,88.20
2022-08-27T11:41:07.363Z,88.40
2022-08-27T11:43:35.930Z,88.60
2022-08-27T11:46:04.669Z,88.60
2022-08-27T11:48:31.505Z,86.60
2022-08-27T11:51:01.610Z,85.70
2022-08-27T11:53:30.323Z,85.70
2022-08-27T11:55:57.723Z,85.70
2022-08-27T11:58:28.158Z,85.60
2022-08-27T12:00:54.990Z,85.60
2022-08-27T12:03:21.722Z,85.90
2022-08-27T12:05:48.509Z,85.70
2022-08-27T12:08:20.315Z,86.20
2022-08-27T12:11:00.250Z,85.90
2022-08-27T12:13:41.434Z,85.90
2022-08-27T12:16:35.381Z,86.00
2022-08-27T12:19:21.040Z,86.20
2022-08-27T12:21:48.345Z,86.40
2022-08-27T12:24:15.241Z,87.20
2022-08-27T12:26:43.352Z,85.50
2022-08-27T12:29:27.908Z,85.90
2022-08-27T12:32:07.119Z,85.70
2022-08-27T12:34:43.015Z,86.30
2022-08-27T12:37:10.696Z,85.50
2022-08-27T12:39:39.437Z,85.20
2022-08-27T12:42:13.074Z,85.60
2022-08-27T12:44:40.236Z,86.00
2022-08-27T12:47:08.785Z,85.10
2022-08-27T12:49:46.300Z,84.60
2022-08-27T12:52:26.410Z,84.90
2022-08-27T12:55:05.502Z,86.10
2022-08-27T12:57:41.483Z,84.70
2022-08-27T13:00:15.633Z,84.70
2022-08-27T13:02:51.949Z,84.60
2022-08-27T13:05:21.173Z,84.90
2022-08-27T13:07:48.650Z,83.80
2022-08-27T13:10:19.898Z,84.30
2022-08-27T13:12:48.383Z,84.70
2022-08-27T13:15:16.427Z,82.90
2022-08-27T13:17:44.442Z,84.00
2022-08-27T13:20:22.536Z,83.50
2022-08-27T13:22:50.018Z,82.70
2022-08-27T13:25:20.985Z,83.90
2022-08-27T13:28:00.839Z,82.60
2022-08-27T13:30:35.857Z,83.10
2022-08-27T13:33:04.193Z,81.60
2022-08-27T13:35:34.058Z,82.20
2022-08-27T13:38:02.163Z,82.30
2022-08-27T13:40:31.519Z,83.50
2022-08-27T13:43:03.394Z,83.20
2022-08-27T13:45:30.791Z,82.40
2022-08-27T13:48:01.334Z,83.90
2022-08-27T13:50:29.709Z,83.10
2022-08-27T13:53:42.889Z,82.90
2022-08-27T13:56:30.166Z,83.60
2022-08-27T13:59:07.069Z,83.60
2022-08-27T14:01:37.724Z,83.20
2022-08-27T14:04:09.859Z,81.30
2022-08-27T14:06:42.041Z,82.20
2022-08-27T14:09:20.689Z,83.50
2022-08-27T14:11:48.174Z,81.80
2022-08-27T14:14:16.789Z,80.80
2022-08-27T14:16:44.854Z,81.80
2022-08-27T14:19:14.526Z,82.10
2022-08-27T14:21:42.321Z,80.60
2022-08-27T14:24:10.694Z,80.70
2022-08-27T14:26:37.524Z,80.70
2022-08-27T14:29:04.393Z,80.20
2022-08-27T14:31:39.211Z,80.00
2022-08-27T14:34:08.415Z,80.20
2022-08-27T14:36:37.246Z,81.20
2022-08-27T14:39:04.203Z,81.10
2022-08-27T14:41:31.559Z,81.40
2022-08-27T14:44:00.830Z,80.60
2022-08-27T14:46:29.204Z,80.40
2022-08-27T14:48:57.080Z,80.90
2022-08-27T14:51:26.164Z,81.40
2022-08-27T14:53:53.459Z,83.00
2022-08-27T14:56:21.756Z,81.60
2022-08-27T14:58:48.644Z,82.10
2022-08-27T15:01:17.569Z,81.50
2022-08-27T15:03:47.518Z,83.60
2022-08-27T15:06:15.223Z,83.50
2022-08-27T15:08:44.682Z,82.60
2022-08-27T15:11:14.474Z,82.10
2022-08-27T15:13:41.391Z,81.80
2022-08-27T15:16:20.717Z,80.20
2022-08-27T15:18:56.867Z,81.30
2022-08-27T15:21:29.663Z,83.20
2022-08-27T15:24:01.641Z,82.60
2022-08-27T15:26:28.534Z,83.80
2022-08-27T15:28:55.919Z,83.40
2022-08-27T15:31:23.021Z,83.60
2022-08-27T15:33:49.890Z,83.40
2022-08-27T15:36:16.696Z,83.30
2022-08-27T15:38:43.491Z,83.40
2022-08-27T15:41:10.479Z,83.30
2022-08-27T15:43:38.551Z,84.10
2022-08-27T15:46:05.703Z,84.30
2022-08-27T15:48:33.056Z,84.80
2022-08-27T15:51:06.742Z,84.40
2022-08-27T15:53:34.595Z,85.00
2022-08-27T15:56:03.982Z,84.60
2022-08-27T15:58:31.789Z,84.60
2022-08-27T16:01:25.070Z,84.30
2022-08-27T16:03:52.629Z,83.90
2022-08-27T16:06:19.707Z,85.20
2022-08-27T16:08:47.050Z,85.40
2022-08-27T16:11:13.889Z,84.30
2022-08-27T16:13:41.079Z,84.00
2022-08-27T16:16:08.663Z,84.50
2022-08-27T16:18:37.372Z,84.60
2022-08-27T16:21:04.469Z,85.60
2022-08-27T16:23:31.753Z,84.50
2022-08-27T16:25:58.576Z,85.40
2022-08-27T16:28:25.311Z,85.10
2022-08-27T16:30:53.520Z,85.50
2022-08-27T16:33:22.681Z,85.10
2022-08-27T16:35:50.262Z,86.20
2022-08-27T16:38:17.219Z,86.60
2022-08-27T16:40:48.071Z,86.40
2022-08-27T16:43:18.254Z,85.30
2022-08-27T16:45:45.158Z,84.80
2022-08-27T16:48:30.877Z,84.80
2022-08-27T16:50:59.301Z,85.30
2022-08-27T16:53:26.606Z,85.90
2022-08-27T16:55:53.889Z,85.30
2022-08-27T16:58:22.374Z,86.30
2022-08-27T17:00:50.662Z,85.70
2022-08-27T17:03:19.295Z,85.50
2022-08-27T17:05:46.341Z,85.90
2022-08-27T17:08:21.986Z,85.90
2022-08-27T17:10:54.996Z,85.20
2022-08-27T17:13:28.229Z,84.90
2022-08-27T17:15:56.394Z,84.60
2022-08-27T17:18:25.475Z,84.20
2022-08-27T17:20:52.819Z,83.50
2022-08-27T17:23:28.566Z,84.00
2022-08-27T17:25:55.782Z,84.00
2022-08-27T17:28:22.880Z,84.10
2022-08-27T17:30:52.583Z,83.50
2022-08-27T17:33:23.192Z,82.90
2022-08-27T17:35:50.329Z,82.80
2022-08-27T17:38:17.575Z,83.80
2022-08-27T17:40:44.607Z,84.10
2022-08-27T17:43:11.677Z,83.40
2022-08-27T17:45:40.429Z,83.00
2022-08-27T17:48:14.056Z,83.20
2022-08-27T17:50:45.060Z,82.70
2022-08-27T17:53:11.872Z,83.20
2022-08-27T17:55:39.131Z,83.60
2022-08-27T17:58:06.973Z,83.90
2022-08-27T18:00:33.832Z,84.30
2022-08-27T18:03:01.129Z,84.20
2022-08-27T18:05:28.286Z,84.60
2022-08-27T18:07:57.216Z,84.60
2022-08-27T18:10:25.194Z,84.90
2022-08-27T18:12:53.239Z,84.50
2022-08-27T18:15:22.041Z,84.30
2022-08-27T18:17:49.101Z,84.60
2022-08-27T18:20:21.722Z,84.60
2022-08-27T18:22:49.219Z,84.20
2022-08-27T18:25:17.999Z,84.60
2022-08-27T18:27:45.984Z,84.60
2022-08-27T18:30:13.009Z,84.20
2022-08-27T18:32:40.433Z,85.20
2022-08-27T18:35:14.196Z,84.60
2022-08-27T18:37:41.738Z,85.00
2022-08-27T18:40:09.397Z,85.20
2022-08-27T18:42:38.217Z,85.80
2022-08-27T18:45:07.686Z,85.90
2022-08-27T18:47:34.386Z,85.30
2022-08-27T18:50:01.184Z,85.60
2022-08-27T18:52:28.029Z,85.50
2022-08-27T18:54:54.883Z,85.30
2022-08-27T19:00:26.688Z,86.50
2022-08-27T19:02:55.406Z,85.90
2022-08-27T19:05:25.111Z,85.90
2022-08-27T19:07:52.116Z,85.70
2022-08-27T19:10:20.278Z,86.30
2022-08-27T19:12:47.926Z,85.40
2022-08-27T19:15:14.756Z,86.00
2022-08-27T19:17:43.107Z,85.70
2022-08-27T19:20:11.788Z,85.70
2022-08-27T19:22:38.521Z,85.90
2022-08-27T19:25:08.113Z,86.30
2022-08-27T19:27:35.918Z,87.10
2022-08-27T19:30:03.514Z,86.40
2022-08-27T19:32:31.119Z,86.00
2022-08-27T19:34:57.905Z,86.70
2022-08-27T19:37:26.488Z,86.60
2022-08-27T19:39:54.240Z,86.50
2022-08-27T19:42:21.503Z,86.80
2022-08-27T19:44:51.607Z,86.90
2022-08-27T19:47:30.358Z,87.30
2022-08-27T19:49:58.131Z,87.80
2022-08-27T19:52:25.120Z,87.70
2022-08-27T19:55:12.466Z,87.70
2022-08-27T19:57:42.779Z,88.10
2022-08-27T20:00:13.214Z,88.40
2022-08-27T20:02:40.661Z,88.10
2022-08-27T20:05:17.783Z,88.40
2022-08-27T20:07:47.802Z,88.60
2022-08-27T20:10:42.556Z,88.40
2022-08-27T20:13:21.558Z,88.10
2022-08-27T20:18:46.545Z,88.90
2022-08-27T20:21:35.943Z,88.90
2022-08-27T20:24:10.944Z,88.70
2022-08-27T20:26:44.263Z,88.30
2022-08-27T20:29:15.039Z,88.90
2022-08-27T20:31:56.761Z,88.70
2022-08-27T20:34:26.612Z,89.30
2022-08-27T20:36:56.378Z,89.50
2022-08-27T20:39:23.268Z,89.00
2022-08-27T20:41:52.154Z,89.40
2022-08-27T20:44:19.276Z,89.40
2022-08-27T20:46:48.865Z,89.70
2022-08-27T20:49:19.518Z,89.50
2022-08-27T20:51:51.160Z,89.50
2022-08-27T20:54:31.775Z,89.70
2022-08-27T20:56:58.861Z,89.70
2022-08-27T20:59:44.680Z,90.00
2022-08-27T21:02:12.733Z,90.00
2022-08-27T21:04:41.267Z,90.10
2022-08-27T21:07:08.096Z,90.40
2022-08-27T21:09:35.017Z,90.10
2022-08-27T21:12:01.833Z,90.20
2022-08-27T21:14:29.393Z,90.40
2022-08-27T21:16:56.786Z,90.40
2022-08-27T21:19:23.878Z,90.60
2022-08-27T21:21:51.550Z,90.10
2022-08-27T21:24:18.583Z,90.30
2022-08-27T21:26:45.686Z,90.20
2022-08-27T21:29:13.000Z,90.00
2022-08-27T21:31:39.752Z,90.20
2022-08-27T21:34:06.623Z,90.20
2022-08-27T21:36:37.323Z,90.10
2022-08-27T21:39:04.053Z,90.50
2022-08-27T21:41:34.291Z,90.20
2022-08-27T21:44:05.538Z,90.30
2022-08-27T21:46:33.354Z,90.30
2022-08-27T21:49:00.239Z,90.30
2022-08-27T21:51:28.813Z,90.50
2022-08-27T21:53:55.647Z,90.40
2022-08-27T21:56:22.853Z,90.40
2022-08-27T21:58:49.698Z,90.50
2022-08-27T22:01:16.604Z,90.40
2022-08-27T22:03:47.049Z,90.80
2022-08-27T22:06:15.660Z,90.60
2022-08-27T22:08:43.636Z,90.40
2022-08-27T22:11:10.805Z,90.50
2022-08-27T22:13:38.220Z,90.60
2022-08-27T22:16:05.308Z,90.70
2022-08-27T22:18:32.168Z,90.70
2022-08-27T22:20:59.537Z,90.50
2022-08-27T22:23:26.863Z,90.60
2022-08-27T22:25:53.728Z,90.60
2022-08-27T22:28:21.313Z,90.60
2022-08-27T22:30:48.023Z,90.90
2022-08-27T22:33:15.411Z,91.00
2022-08-27T22:35:43.673Z,90.50
2022-08-27T22:38:11.070Z,90.50
2022-08-27T22:40:38.433Z,90.90
2022-08-27T22:43:05.520Z,90.80
2022-08-27T22:45:32.324Z,90.60
2022-08-27T22:47:59.258Z,90.80
2022-08-27T22:50:26.163Z,90.80
2022-08-27T22:52:53.073Z,90.70
2022-08-27T22:55:20.758Z,90.40
2022-08-27T22:57:48.304Z,90.80
2022-08-27T23:00:17.571Z,90.80
2022-08-27T23:02:44.488Z,90.60
2022-08-27T23:05:11.474Z,90.60
2022-08-27T23:07:38.570Z,90.50
2022-08-27T23:10:06.880Z,90.20
2022-08-27T23:12:38.909Z,90.40
2022-08-27T23:15:07.440Z,90.50
2022-08-27T23:17:34.317Z,90.50
2022-08-27T23:20:01.821Z,90.50
2022-08-27T23:22:28.827Z,90.40
2022-08-27T23:25:14.870Z,90.00
2022-08-27T23:27:41.760Z,90.30
2022-08-27T23:30:09.118Z,90.60
2022-08-27T23:32:37.855Z,90.80
2022-08-27T23:35:05.636Z,90.70
2022-08-27T23:37:32.407Z,90.70
2022-08-27T23:40:00.275Z,90.80
2022-08-27T23:42:27.974Z,91.00
2022-08-27T23:44:55.231Z,90.70
2022-08-27T23:47:22.009Z,91.00
2022-08-27T23:49:48.678Z,91.00
2022-08-27T23:52:15.385Z,90.90
2022-08-27T23:54:42.843Z,90.70
2022-08-27T23:57:09.635Z,90.90
2022-08-27T23:59:36.323Z,90.70
